BAW815C EKCH-EGLL
Flight info
| Callsign | BAW815C |
|---|---|
| Flight time | 1h 31m |
| Altitude | 38000 |
| Route | LANGO2A LANGO DCT RAXLU DCT JUIST DCT ABNED L980 LOGAN LOGAN2H |
| Aircraft | A320/M-VGDW/C |
Departure
| Time | 2026-04-30 18:36 |
|---|---|
| Airport | Copenhagen Kastrup Airport (EKCH) |
Arrival
| Time | 2026-04-30 20:07 |
|---|---|
| Airport | London Heathrow Airport (EGLL) |
| Time | Latitude | Longitude | Altitude | Speed | Heading |
|---|---|---|---|---|---|
| 2026-04-30 17:56 | 55.62608 | 12.64901 | 27 ft | 0 kts | 92° |
| 2026-04-30 18:25 | 55.62609 | 12.64871 | 24 ft | 3 kts | 96° |
| 2026-04-30 18:25 | 55.62612 | 12.64836 | 24 ft | 3 kts | 105° |
| 2026-04-30 18:26 | 55.62630 | 12.64782 | 27 ft | 3 kts | 169° |
| 2026-04-30 18:26 | 55.62638 | 12.64780 | 27 ft | 0 kts | 191° |
| 2026-04-30 18:28 | 55.62637 | 12.64780 | 27 ft | 1 kts | 191° |
| 2026-04-30 18:29 | 55.62621 | 12.64774 | 26 ft | 5 kts | 191° |
| 2026-04-30 18:29 | 55.62389 | 12.64782 | 24 ft | 15 kts | 179° |
| 2026-04-30 18:30 | 55.62231 | 12.64788 | 24 ft | 10 kts | 193° |
| 2026-04-30 18:30 | 55.62135 | 12.64683 | 26 ft | 20 kts | 212° |
| 2026-04-30 18:31 | 55.62022 | 12.64553 | 24 ft | 20 kts | 213° |
| 2026-04-30 18:31 | 55.61747 | 12.64560 | 24 ft | 18 kts | 169° |
| 2026-04-30 18:32 | 55.61514 | 12.64379 | 25 ft | 23 kts | 213° |
| 2026-04-30 18:32 | 55.61371 | 12.64215 | 24 ft | 26 kts | 213° |
| 2026-04-30 18:32 | 55.61053 | 12.63850 | 24 ft | 23 kts | 213° |
| 2026-04-30 18:33 | 55.60923 | 12.63700 | 24 ft | 23 kts | 213° |
| 2026-04-30 18:33 | 55.60639 | 12.63365 | 24 ft | 24 kts | 219° |
| 2026-04-30 18:33 | 55.60531 | 12.63199 | 24 ft | 19 kts | 221° |
| 2026-04-30 18:34 | 55.60453 | 12.63113 | 24 ft | 12 kts | 183° |
| 2026-04-30 18:34 | 55.60363 | 12.63240 | 25 ft | 9 kts | 130° |
| 2026-04-30 18:34 | 55.60336 | 12.63333 | 26 ft | 8 kts | 76° |
| 2026-04-30 18:35 | 55.60384 | 12.63414 | 29 ft | 13 kts | 41° |
| 2026-04-30 18:35 | 55.60600 | 12.63745 | 24 ft | 76 kts | 41° |
| 2026-04-30 18:35 | 55.61155 | 12.64607 | 23 ft | 133 kts | 41° |
| 2026-04-30 18:36 | 55.62783 | 12.67125 | 987 ft | 154 kts | 38° |
| 2026-04-30 18:36 | 55.63585 | 12.68396 | 1547 ft | 161 kts | 38° |
| 2026-04-30 18:36 | 55.65379 | 12.71383 | 2467 ft | 188 kts | 39° |
| 2026-04-30 18:37 | 55.66352 | 12.73045 | 3013 ft | 199 kts | 41° |
| 2026-04-30 18:37 | 55.67357 | 12.74735 | 3816 ft | 199 kts | 41° |
| 2026-04-30 18:37 | 55.68398 | 12.76446 | 4416 ft | 212 kts | 42° |
| 2026-04-30 18:37 | 55.69492 | 12.78348 | 4969 ft | 229 kts | 49° |
| 2026-04-30 18:38 | 55.70218 | 12.80950 | 5403 ft | 255 kts | 79° |
| 2026-04-30 18:38 | 55.70068 | 12.84140 | 6138 ft | 269 kts | 108° |
| 2026-04-30 18:38 | 55.69034 | 12.86945 | 7027 ft | 279 kts | 135° |
| 2026-04-30 18:38 | 55.67339 | 12.88682 | 7878 ft | 289 kts | 161° |
| 2026-04-30 18:39 | 55.65317 | 12.88949 | 8721 ft | 298 kts | 188° |
| 2026-04-30 18:39 | 55.63364 | 12.87697 | 9563 ft | 303 kts | 212° |
| 2026-04-30 18:39 | 55.62258 | 12.86126 | 10129 ft | 305 kts | 228° |
| 2026-04-30 18:39 | 55.61057 | 12.83041 | 10697 ft | 317 kts | 241° |
| 2026-04-30 18:40 | 55.59912 | 12.79540 | 10927 ft | 340 kts | 242° |
| 2026-04-30 18:40 | 55.58708 | 12.75782 | 11099 ft | 364 kts | 242° |
| 2026-04-30 18:40 | 55.57432 | 12.71791 | 11433 ft | 379 kts | 242° |
| 2026-04-30 18:40 | 55.56114 | 12.67696 | 12022 ft | 386 kts | 241° |
| 2026-04-30 18:41 | 55.54773 | 12.63557 | 12670 ft | 391 kts | 241° |
| 2026-04-30 18:41 | 55.53406 | 12.59363 | 13307 ft | 396 kts | 241° |
| 2026-04-30 18:41 | 55.52020 | 12.55129 | 13922 ft | 401 kts | 241° |
| 2026-04-30 18:41 | 55.50609 | 12.50826 | 14527 ft | 407 kts | 241° |
| 2026-04-30 18:42 | 55.49185 | 12.46484 | 15113 ft | 410 kts | 241° |
| 2026-04-30 18:42 | 55.46302 | 12.37713 | 16326 ft | 416 kts | 241° |
| 2026-04-30 18:42 | 55.44842 | 12.33286 | 16935 ft | 419 kts | 241° |
| 2026-04-30 18:45 | 55.29613 | 11.87623 | 22585 ft | 446 kts | 242° |
| 2026-04-30 18:45 | 55.28028 | 11.82916 | 23036 ft | 449 kts | 242° |
| 2026-04-30 18:45 | 55.26431 | 11.78179 | 23491 ft | 452 kts | 242° |
| 2026-04-30 18:46 | 55.24849 | 11.73490 | 23924 ft | 454 kts | 242° |
| 2026-04-30 18:46 | 55.23216 | 11.68658 | 24308 ft | 456 kts | 242° |
| 2026-04-30 18:46 | 55.21592 | 11.63860 | 24667 ft | 458 kts | 242° |
| 2026-04-30 18:46 | 55.19978 | 11.59116 | 25000 ft | 460 kts | 241° |
| 2026-04-30 18:47 | 55.18334 | 11.54310 | 25389 ft | 461 kts | 241° |
| 2026-04-30 18:47 | 55.16684 | 11.49495 | 25753 ft | 462 kts | 241° |
| 2026-04-30 18:47 | 55.15025 | 11.44659 | 26125 ft | 464 kts | 241° |
| 2026-04-30 18:47 | 55.13362 | 11.39817 | 26488 ft | 466 kts | 242° |
| 2026-04-30 18:48 | 55.11696 | 11.34962 | 26844 ft | 467 kts | 242° |
| 2026-04-30 18:48 | 55.10018 | 11.30078 | 27190 ft | 469 kts | 242° |
| 2026-04-30 18:48 | 55.08336 | 11.25191 | 27529 ft | 471 kts | 242° |
| 2026-04-30 18:48 | 55.06646 | 11.20287 | 27863 ft | 472 kts | 242° |
| 2026-04-30 18:49 | 55.04951 | 11.15376 | 28219 ft | 473 kts | 242° |
| 2026-04-30 18:49 | 55.03251 | 11.10470 | 28695 ft | 471 kts | 242° |
| 2026-04-30 18:49 | 55.01556 | 11.05601 | 29183 ft | 470 kts | 242° |
| 2026-04-30 18:49 | 54.99859 | 11.00742 | 29658 ft | 469 kts | 242° |
| 2026-04-30 18:50 | 54.98170 | 10.95907 | 30129 ft | 467 kts | 242° |
| 2026-04-30 18:50 | 54.96480 | 10.91085 | 30616 ft | 465 kts | 241° |
| 2026-04-30 18:50 | 54.94799 | 10.86294 | 31059 ft | 463 kts | 241° |
| 2026-04-30 18:50 | 54.93080 | 10.81554 | 31490 ft | 462 kts | 239° |
| 2026-04-30 18:51 | 54.91304 | 10.76913 | 31913 ft | 462 kts | 238° |
| 2026-04-30 18:51 | 54.89481 | 10.72322 | 32338 ft | 461 kts | 237° |
| 2026-04-30 18:51 | 54.87643 | 10.67768 | 32780 ft | 459 kts | 237° |
| 2026-04-30 18:51 | 54.85811 | 10.63242 | 33216 ft | 458 kts | 237° |
| 2026-04-30 18:52 | 54.83989 | 10.58706 | 33665 ft | 457 kts | 237° |
| 2026-04-30 18:52 | 54.82192 | 10.54188 | 34099 ft | 455 kts | 238° |
| 2026-04-30 18:52 | 54.80445 | 10.49614 | 34512 ft | 454 kts | 239° |
| 2026-04-30 18:52 | 54.78781 | 10.44961 | 34871 ft | 453 kts | 241° |
| 2026-04-30 18:53 | 54.77175 | 10.40273 | 35231 ft | 452 kts | 242° |
| 2026-04-30 18:53 | 54.75590 | 10.35570 | 35585 ft | 451 kts | 242° |
| 2026-04-30 18:53 | 54.74007 | 10.30877 | 35929 ft | 451 kts | 242° |
| 2026-04-30 18:53 | 54.72412 | 10.26206 | 36267 ft | 450 kts | 241° |
| 2026-04-30 18:54 | 54.70801 | 10.21561 | 36598 ft | 450 kts | 240° |
| 2026-04-30 18:54 | 54.69176 | 10.16941 | 36917 ft | 449 kts | 240° |
| 2026-04-30 18:54 | 54.67547 | 10.12345 | 37231 ft | 448 kts | 240° |
| 2026-04-30 18:54 | 54.65915 | 10.07755 | 37539 ft | 448 kts | 240° |
| 2026-04-30 18:55 | 54.64283 | 10.03167 | 37838 ft | 447 kts | 240° |
| 2026-04-30 18:55 | 54.61058 | 9.94080 | 38388 ft | 447 kts | 240° |
| 2026-04-30 18:55 | 54.59412 | 9.89439 | 38444 ft | 449 kts | 240° |
| 2026-04-30 18:56 | 54.54488 | 9.75643 | 38440 ft | 451 kts | 240° |
| 2026-04-30 18:57 | 54.49565 | 9.61936 | 38437 ft | 450 kts | 240° |
| 2026-04-30 18:57 | 54.46273 | 9.52796 | 38437 ft | 450 kts | 240° |
| 2026-04-30 18:58 | 54.41314 | 9.39113 | 38442 ft | 450 kts | 239° |
| 2026-04-30 18:59 | 54.36331 | 9.25442 | 38443 ft | 451 kts | 239° |
| 2026-04-30 19:00 | 54.29659 | 9.07239 | 38442 ft | 451 kts | 239° |
| 2026-04-30 19:01 | 54.22959 | 8.89086 | 38462 ft | 451 kts | 239° |
| 2026-04-30 19:02 | 54.17912 | 8.75506 | 38460 ft | 451 kts | 239° |
| 2026-04-30 19:03 | 54.11154 | 8.57450 | 38459 ft | 452 kts | 239° |
| 2026-04-30 19:04 | 54.04376 | 8.39454 | 38456 ft | 452 kts | 238° |
| 2026-04-30 19:05 | 53.97568 | 8.21519 | 38470 ft | 451 kts | 238° |
| 2026-04-30 19:06 | 53.90736 | 8.03641 | 38462 ft | 451 kts | 238° |
| 2026-04-30 19:06 | 53.85589 | 7.90272 | 38454 ft | 452 kts | 238° |
| 2026-04-30 19:07 | 53.80425 | 7.76932 | 38442 ft | 451 kts | 238° |
| 2026-04-30 19:08 | 53.73550 | 7.59269 | 38439 ft | 451 kts | 237° |
| 2026-04-30 19:09 | 53.68372 | 7.46020 | 38442 ft | 451 kts | 237° |
| 2026-04-30 19:09 | 53.64903 | 7.37195 | 38443 ft | 451 kts | 237° |
| 2026-04-30 19:10 | 53.57944 | 7.19612 | 38427 ft | 451 kts | 237° |
| 2026-04-30 19:11 | 53.52714 | 7.06458 | 38425 ft | 451 kts | 236° |
| 2026-04-30 19:12 | 53.49211 | 6.97702 | 38413 ft | 452 kts | 236° |
| 2026-04-30 19:12 | 53.45706 | 6.88951 | 38413 ft | 452 kts | 236° |
| 2026-04-30 19:13 | 53.38678 | 6.71509 | 38396 ft | 453 kts | 236° |
| 2026-04-30 19:14 | 53.35143 | 6.62793 | 38402 ft | 452 kts | 236° |
| 2026-04-30 19:14 | 53.31610 | 6.54094 | 38407 ft | 451 kts | 236° |
| 2026-04-30 19:15 | 53.28082 | 6.45426 | 38401 ft | 451 kts | 236° |
| 2026-04-30 19:15 | 53.22767 | 6.32454 | 38392 ft | 451 kts | 236° |
| 2026-04-30 19:16 | 53.19216 | 6.23840 | 38391 ft | 451 kts | 236° |
| 2026-04-30 19:17 | 53.13882 | 6.10929 | 38383 ft | 450 kts | 235° |
| 2026-04-30 19:17 | 53.08543 | 5.98072 | 38390 ft | 450 kts | 234° |
| 2026-04-30 19:18 | 53.03192 | 5.85225 | 38377 ft | 451 kts | 234° |
| 2026-04-30 19:19 | 52.99609 | 5.76669 | 38372 ft | 451 kts | 234° |
| 2026-04-30 19:19 | 52.94208 | 5.63855 | 38366 ft | 452 kts | 234° |
| 2026-04-30 19:20 | 52.90623 | 5.55383 | 38358 ft | 452 kts | 234° |
| 2026-04-30 19:21 | 52.85202 | 5.42621 | 38363 ft | 452 kts | 233° |
| 2026-04-30 19:22 | 52.77959 | 5.25632 | 38357 ft | 452 kts | 233° |
| 2026-04-30 19:23 | 52.67059 | 5.00327 | 38357 ft | 452 kts | 232° |
| 2026-04-30 19:24 | 52.61593 | 4.87712 | 38360 ft | 450 kts | 232° |
| 2026-04-30 19:25 | 52.52483 | 4.66832 | 38356 ft | 449 kts | 232° |
| 2026-04-30 19:26 | 52.45810 | 4.51664 | 38349 ft | 448 kts | 232° |
| 2026-04-30 19:27 | 52.39731 | 4.37911 | 38348 ft | 448 kts | 232° |
| 2026-04-30 19:28 | 52.34820 | 4.26856 | 38336 ft | 448 kts | 232° |
| 2026-04-30 19:29 | 52.27456 | 4.10392 | 38324 ft | 449 kts | 232° |
| 2026-04-30 19:30 | 52.20074 | 3.93978 | 38315 ft | 449 kts | 232° |
| 2026-04-30 19:31 | 52.12703 | 3.77675 | 38319 ft | 448 kts | 231° |
| 2026-04-30 19:31 | 52.07142 | 3.65469 | 38312 ft | 447 kts | 231° |
| 2026-04-30 19:32 | 52.03437 | 3.57351 | 38307 ft | 447 kts | 231° |
| 2026-04-30 19:32 | 51.99723 | 3.49242 | 38305 ft | 447 kts | 231° |
| 2026-04-30 19:33 | 51.96004 | 3.41152 | 38313 ft | 447 kts | 231° |
| 2026-04-30 19:33 | 51.92279 | 3.33064 | 38308 ft | 447 kts | 231° |
| 2026-04-30 19:34 | 51.88551 | 3.25022 | 38305 ft | 446 kts | 231° |
| 2026-04-30 19:34 | 51.85483 | 3.16297 | 38296 ft | 450 kts | 248° |
| 2026-04-30 19:35 | 51.84632 | 3.11430 | 38293 ft | 452 kts | 258° |
| 2026-04-30 19:35 | 51.83915 | 3.01315 | 38285 ft | 453 kts | 262° |
| 2026-04-30 19:36 | 51.83250 | 2.91194 | 38280 ft | 453 kts | 262° |
| 2026-04-30 19:36 | 51.82214 | 2.76018 | 38282 ft | 452 kts | 262° |
| 2026-04-30 19:37 | 51.81534 | 2.66001 | 38274 ft | 451 kts | 262° |
| 2026-04-30 19:37 | 51.80844 | 2.55920 | 38275 ft | 451 kts | 261° |
| 2026-04-30 19:38 | 51.80143 | 2.45841 | 38270 ft | 451 kts | 261° |
| 2026-04-30 19:38 | 51.79432 | 2.35762 | 38149 ft | 451 kts | 261° |
| 2026-04-30 19:39 | 51.79073 | 2.30743 | 37865 ft | 450 kts | 261° |
| 2026-04-30 19:39 | 51.78713 | 2.25723 | 37494 ft | 449 kts | 261° |
| 2026-04-30 19:39 | 51.78352 | 2.20712 | 36842 ft | 449 kts | 261° |
| 2026-04-30 19:39 | 51.78018 | 2.15686 | 36125 ft | 452 kts | 262° |
| 2026-04-30 19:40 | 51.77713 | 2.10626 | 35345 ft | 455 kts | 262° |
| 2026-04-30 19:40 | 51.77425 | 2.05504 | 34548 ft | 459 kts | 262° |
| 2026-04-30 19:40 | 51.77144 | 2.00348 | 33598 ft | 464 kts | 262° |
| 2026-04-30 19:40 | 51.76855 | 1.95135 | 32645 ft | 468 kts | 262° |
| 2026-04-30 19:41 | 51.76554 | 1.89881 | 31685 ft | 471 kts | 262° |
| 2026-04-30 19:41 | 51.76237 | 1.84606 | 30695 ft | 474 kts | 261° |
| 2026-04-30 19:41 | 51.75904 | 1.79275 | 29467 ft | 479 kts | 261° |
| 2026-04-30 19:41 | 51.75569 | 1.73988 | 28345 ft | 480 kts | 261° |
| 2026-04-30 19:42 | 51.75231 | 1.68660 | 27092 ft | 482 kts | 262° |
| 2026-04-30 19:42 | 51.74886 | 1.63229 | 25795 ft | 485 kts | 262° |
| 2026-04-30 19:42 | 51.74545 | 1.57820 | 24675 ft | 486 kts | 262° |
| 2026-04-30 19:42 | 51.74204 | 1.52427 | 24069 ft | 482 kts | 262° |
| 2026-04-30 19:43 | 51.73862 | 1.47061 | 23267 ft | 478 kts | 262° |
| 2026-04-30 19:43 | 51.73523 | 1.41757 | 22573 ft | 473 kts | 262° |
| 2026-04-30 19:43 | 51.73183 | 1.36515 | 21867 ft | 468 kts | 262° |
| 2026-04-30 19:44 | 51.72508 | 1.26204 | 20481 ft | 457 kts | 262° |
| 2026-04-30 19:44 | 51.72172 | 1.21137 | 19799 ft | 452 kts | 262° |
| 2026-04-30 19:44 | 51.71838 | 1.16127 | 19124 ft | 448 kts | 261° |
| 2026-04-30 19:44 | 51.71504 | 1.11167 | 18447 ft | 443 kts | 261° |
| 2026-04-30 19:45 | 51.71168 | 1.06263 | 17743 ft | 438 kts | 262° |
| 2026-04-30 19:45 | 51.70834 | 1.01400 | 17088 ft | 435 kts | 261° |
| 2026-04-30 19:45 | 51.70500 | 0.96570 | 16445 ft | 431 kts | 261° |
| 2026-04-30 19:45 | 51.70167 | 0.91779 | 15595 ft | 430 kts | 261° |
| 2026-04-30 19:46 | 51.69833 | 0.86963 | 14501 ft | 435 kts | 261° |
| 2026-04-30 19:46 | 51.69501 | 0.82176 | 14192 ft | 420 kts | 261° |
| 2026-04-30 19:46 | 51.69187 | 0.77629 | 14217 ft | 397 kts | 261° |
| 2026-04-30 19:46 | 51.68888 | 0.73339 | 14217 ft | 375 kts | 261° |
| 2026-04-30 19:47 | 51.68602 | 0.69272 | 14219 ft | 355 kts | 260° |
| 2026-04-30 19:47 | 51.68419 | 0.66694 | 14219 ft | 344 kts | 260° |
| 2026-04-30 19:47 | 51.68064 | 0.61732 | 14213 ft | 324 kts | 260° |
| 2026-04-30 19:47 | 51.67801 | 0.58132 | 13768 ft | 321 kts | 260° |
| 2026-04-30 19:48 | 51.67540 | 0.54594 | 13208 ft | 315 kts | 259° |
| 2026-04-30 19:48 | 51.67283 | 0.51107 | 12641 ft | 312 kts | 259° |
| 2026-04-30 19:48 | 51.67027 | 0.47648 | 12095 ft | 309 kts | 259° |
| 2026-04-30 19:48 | 51.66773 | 0.44199 | 11553 ft | 310 kts | 259° |
| 2026-04-30 19:49 | 51.66518 | 0.40759 | 11262 ft | 306 kts | 259° |
| 2026-04-30 19:49 | 51.66022 | 0.34042 | 10572 ft | 299 kts | 259° |
| 2026-04-30 19:49 | 51.65777 | 0.30723 | 10070 ft | 297 kts | 259° |
| 2026-04-30 19:50 | 51.65531 | 0.27425 | 9490 ft | 295 kts | 259° |
| 2026-04-30 19:50 | 51.65288 | 0.24235 | 9358 ft | 279 kts | 259° |
| 2026-04-30 19:50 | 51.65062 | 0.21223 | 9199 ft | 264 kts | 259° |
| 2026-04-30 19:50 | 51.64845 | 0.18323 | 8853 ft | 258 kts | 259° |
| 2026-04-30 19:51 | 51.64627 | 0.15465 | 8507 ft | 257 kts | 259° |
| 2026-04-30 19:51 | 51.64434 | 0.12633 | 8227 ft | 256 kts | 261° |
| 2026-04-30 19:51 | 51.64273 | 0.09788 | 7938 ft | 255 kts | 262° |
| 2026-04-30 19:51 | 51.64126 | 0.06973 | 7663 ft | 253 kts | 262° |
| 2026-04-30 19:52 | 51.63981 | 0.04160 | 7386 ft | 251 kts | 262° |
| 2026-04-30 19:52 | 51.63835 | 0.01374 | 7226 ft | 250 kts | 262° |
| 2026-04-30 19:52 | 51.63685 | -0.01408 | 7265 ft | 250 kts | 262° |
| 2026-04-30 19:52 | 51.63531 | -0.04206 | 7261 ft | 251 kts | 262° |
| 2026-04-30 19:53 | 51.63376 | -0.07003 | 7251 ft | 251 kts | 262° |
| 2026-04-30 19:53 | 51.63220 | -0.09797 | 7209 ft | 250 kts | 261° |
| 2026-04-30 19:53 | 51.63064 | -0.12563 | 7164 ft | 250 kts | 262° |
| 2026-04-30 19:53 | 51.62906 | -0.15345 | 7065 ft | 250 kts | 262° |
| 2026-04-30 19:54 | 51.62748 | -0.18125 | 6894 ft | 249 kts | 261° |
| 2026-04-30 19:54 | 51.62591 | -0.20887 | 6733 ft | 248 kts | 261° |
| 2026-04-30 19:54 | 51.62432 | -0.23656 | 6559 ft | 247 kts | 261° |
| 2026-04-30 19:54 | 51.62274 | -0.26401 | 6396 ft | 246 kts | 261° |
| 2026-04-30 19:55 | 51.62114 | -0.29136 | 6269 ft | 245 kts | 261° |
| 2026-04-30 19:55 | 51.61953 | -0.31863 | 6142 ft | 245 kts | 261° |
| 2026-04-30 19:55 | 51.61792 | -0.34551 | 5923 ft | 244 kts | 261° |
| 2026-04-30 19:55 | 51.61631 | -0.37257 | 5767 ft | 242 kts | 261° |
| 2026-04-30 19:56 | 51.61471 | -0.39961 | 5616 ft | 242 kts | 261° |
| 2026-04-30 19:56 | 51.61312 | -0.42652 | 5478 ft | 241 kts | 261° |
| 2026-04-30 19:56 | 51.61154 | -0.45336 | 5354 ft | 241 kts | 261° |
| 2026-04-30 19:56 | 51.60998 | -0.48010 | 5232 ft | 240 kts | 261° |
| 2026-04-30 19:57 | 51.60836 | -0.50674 | 5107 ft | 238 kts | 260° |
| 2026-04-30 19:57 | 51.60674 | -0.53320 | 4982 ft | 238 kts | 260° |
| 2026-04-30 19:57 | 51.60511 | -0.55968 | 4864 ft | 238 kts | 260° |
| 2026-04-30 19:57 | 51.60349 | -0.58622 | 4727 ft | 238 kts | 260° |
| 2026-04-30 19:58 | 51.60186 | -0.61274 | 4601 ft | 238 kts | 259° |
| 2026-04-30 19:58 | 51.60024 | -0.63925 | 4472 ft | 239 kts | 259° |
| 2026-04-30 19:58 | 51.59868 | -0.66589 | 4341 ft | 237 kts | 260° |
| 2026-04-30 19:58 | 51.59724 | -0.69184 | 4214 ft | 228 kts | 259° |
| 2026-04-30 19:59 | 51.59573 | -0.71670 | 4093 ft | 218 kts | 258° |
| 2026-04-30 19:59 | 51.59422 | -0.74056 | 3963 ft | 212 kts | 258° |
| 2026-04-30 19:59 | 51.58487 | -0.78240 | 3716 ft | 193 kts | 217° |
| 2026-04-30 20:00 | 51.57388 | -0.79360 | 3584 ft | 184 kts | 192° |
| 2026-04-30 20:00 | 51.56149 | -0.79629 | 3481 ft | 184 kts | 173° |
| 2026-04-30 20:00 | 51.54873 | -0.79550 | 3345 ft | 180 kts | 173° |
| 2026-04-30 20:00 | 51.53646 | -0.79485 | 3212 ft | 174 kts | 173° |
| 2026-04-30 20:01 | 51.51247 | -0.79355 | 3031 ft | 172 kts | 173° |
| 2026-04-30 20:01 | 51.50065 | -0.79216 | 3014 ft | 169 kts | 163° |
| 2026-04-30 20:01 | 51.48998 | -0.78510 | 3012 ft | 166 kts | 144° |
| 2026-04-30 20:02 | 51.47690 | -0.75547 | 3014 ft | 170 kts | 107° |
| 2026-04-30 20:02 | 51.47613 | -0.73634 | 3007 ft | 174 kts | 95° |
| 2026-04-30 20:03 | 51.47643 | -0.69829 | 2695 ft | 161 kts | 96° |
| 2026-04-30 20:03 | 51.47654 | -0.68118 | 2485 ft | 150 kts | 96° |
| 2026-04-30 20:03 | 51.47664 | -0.66507 | 2287 ft | 139 kts | 96° |
| 2026-04-30 20:03 | 51.47672 | -0.65001 | 2111 ft | 132 kts | 96° |
| 2026-04-30 20:04 | 51.47679 | -0.63543 | 1940 ft | 130 kts | 96° |
| 2026-04-30 20:04 | 51.47686 | -0.62095 | 1760 ft | 130 kts | 95° |
| 2026-04-30 20:04 | 51.47693 | -0.60652 | 1593 ft | 128 kts | 95° |
| 2026-04-30 20:05 | 51.47707 | -0.57795 | 1247 ft | 128 kts | 93° |
| 2026-04-30 20:05 | 51.47713 | -0.56369 | 1076 ft | 127 kts | 92° |
| 2026-04-30 20:05 | 51.47716 | -0.53489 | 699 ft | 130 kts | 89° |
| 2026-04-30 20:06 | 51.47734 | -0.52045 | 578 ft | 130 kts | 88° |
| 2026-04-30 20:06 | 51.47749 | -0.50598 | 355 ft | 129 kts | 89° |
| 2026-04-30 20:06 | 51.47754 | -0.49141 | 201 ft | 131 kts | 88° |
| 2026-04-30 20:06 | 51.47756 | -0.47692 | 90 ft | 122 kts | 89° |
| 2026-04-30 20:07 | 51.47759 | -0.46578 | 89 ft | 76 kts | 90° |
| 2026-04-30 20:07 | 51.47761 | -0.45963 | 85 ft | 45 kts | 90° |
| 2026-04-30 20:07 | 51.47678 | -0.45466 | 86 ft | 15 kts | 177° |
| 2026-04-30 20:08 | 51.47631 | -0.45466 | 86 ft | 1 kts | 180° |
| 2026-04-30 20:08 | 51.47609 | -0.45467 | 86 ft | 3 kts | 180° |
| 2026-04-30 20:08 | 51.47606 | -0.45467 | 86 ft | 0 kts | 180° |
| 2026-04-30 20:09 | 51.47605 | -0.45468 | 86 ft | 1 kts | 190° |
| 2026-04-30 20:09 | 51.47595 | -0.45544 | 86 ft | 11 kts | 272° |
| 2026-04-30 20:09 | 51.47595 | -0.45881 | 90 ft | 23 kts | 270° |
| 2026-04-30 20:10 | 51.47593 | -0.46395 | 86 ft | 25 kts | 269° |
| 2026-04-30 20:10 | 51.47592 | -0.46687 | 86 ft | 24 kts | 270° |
| 2026-04-30 20:10 | 51.47583 | -0.46946 | 89 ft | 24 kts | 269° |
| 2026-04-30 20:11 | 51.47581 | -0.47460 | 86 ft | 24 kts | 270° |
| 2026-04-30 20:11 | 51.47580 | -0.47744 | 90 ft | 25 kts | 270° |
| 2026-04-30 20:11 | 51.47579 | -0.48005 | 88 ft | 24 kts | 269° |
| 2026-04-30 20:12 | 51.47574 | -0.48427 | 88 ft | 12 kts | 254° |
| 2026-04-30 20:12 | 51.47510 | -0.48475 | 88 ft | 7 kts | 182° |
| 2026-04-30 20:12 | 51.47467 | -0.48476 | 86 ft | 5 kts | 180° |
| 2026-04-30 20:13 | 51.47452 | -0.48476 | 86 ft | 3 kts | 180° |
| 2026-04-30 20:13 | 51.47441 | -0.48476 | 86 ft | 0 kts | 180° |
| 2026-04-30 20:14 | 51.47428 | -0.48476 | 86 ft | 8 kts | 180° |
| 2026-04-30 20:14 | 51.47347 | -0.48473 | 86 ft | 10 kts | 179° |
| 2026-04-30 20:15 | 51.47272 | -0.48473 | 86 ft | 8 kts | 179° |
| 2026-04-30 20:15 | 51.47239 | -0.48485 | 86 ft | 5 kts | 222° |
| 2026-04-30 20:15 | 51.47233 | -0.48549 | 88 ft | 7 kts | 270° |
| 2026-04-30 20:15 | 51.47233 | -0.48581 | 86 ft | 0 kts | 269° |
| 2026-04-30 20:16 | 51.47233 | -0.48585 | 89 ft | 0 kts | 269° |